Medlin's Ranch, Nevada Weather observations

Data are for observation ending at time listed.
 Day   Time    Ave.   Ave.  Ave.  Vector   Max.   Stn.    Total    Solar   Ave.  
  of    of     Air    Rel.  Wind   Wind    Wind   Baro.  Precip.   Rad.    Soil  
Year   Day     Temp.  Hum.  Speed  Dir.    Gust   Pres.                    Temp. 
2016   (PST)    F      %     mph   deg.    mph     mb.     in.     W/m2     F   
------------------------------------------------------------------------------
 125    7:00  99999.0   99999  99999.0   99999    99999.0    99999    99999.00   99999    99999.0
 125    8:00  99999.0   99999  99999.0   99999    99999.0    99999    99999.00   99999    99999.0
 125    9:00  99999.0   99999  99999.0   99999    99999.0    99999    99999.00   99999    99999.0
 125   10:00  99999.0   99999  99999.0   99999    99999.0    99999    99999.00   99999    99999.0
 125   11:00  99999.0   99999  99999.0   99999    99999.0    99999    99999.00   99999    99999.0
 125   12:00  99999.0   99999  99999.0   99999    99999.0    99999    99999.00   99999    99999.0
 125   13:00  99999.0   99999  99999.0   99999    99999.0    99999    99999.00   99999    99999.0
 125   14:00  99999.0   99999  99999.0   99999    99999.0    99999    99999.00   99999    99999.0
 125   15:00  99999.0   99999  99999.0   99999    99999.0    99999    99999.00   99999    99999.0
 125   16:00   78.3    13   12.4   164     23.2    860     0.00     501    76.8
 125   17:00   77.7    14   12.3   156     22.6    860     0.00     375    76.3
 125   18:00   75.6    14   10.8   159     20.8    859     0.00     107    75.3
 125   19:00   70.9    18    5.2   154     13.6    859     0.00       9    73.9
 125   20:00   64.8    26    3.8   183      7.4    859     0.00       0    72.3
 125   21:00   64.8    23    5.6   196     13.2    860     0.00       0    70.7
 125   22:00   62.6    26    2.0   168      5.6    860     0.00       0    69.3
 125   23:00   61.6    26    1.4   110      6.7    860     0.00       0    67.9
 126    0:00   58.8    30    1.3   313      3.2    859     0.00       0    66.7
 126    1:00   55.4    39    3.5   301     10.6    859     0.00       0    65.6
 126    2:00   54.6    39    4.2   275      7.5    858     0.00       0    64.6
 126    3:00   52.7    44    3.4   291      5.2    858     0.00       0    63.6
 126    4:00   51.0    50    3.7   263      5.5    858     0.00       0    62.8
 126    5:00   49.4    56    2.3   291      5.8    858     0.00       1    61.9
 126    6:00   52.8    52    2.3   316      3.6    858     0.00      84    61.1

Return to Medlin's Ranch, Nevada graphs page.


Western Regional Climate Center,wrcc@dri.edu